sensor_id;sensor_type;location;lat;lon;timestamp;pressure;altitude;pressure_sealevel;temperature;humidity
3260;BME280;68938;48.150;14.004;2023-04-19T00:00:48;98452.25;;;13.83;72.03
3260;BME280;68938;48.150;14.004;2023-04-19T00:03:15;98438.72;;;13.78;72.12
3260;BME280;68938;48.150;14.004;2023-04-19T00:05:43;98444.72;;;13.79;72.15
3260;BME280;68938;48.150;14.004;2023-04-19T00:08:10;98445.53;;;13.79;72.33
3260;BME280;68938;48.150;14.004;2023-04-19T00:10:37;98443.09;;;13.76;72.40
3260;BME280;68938;48.150;14.004;2023-04-19T00:13:03;98438.84;;;13.75;72.25
3260;BME280;68938;48.150;14.004;2023-04-19T00:15:31;98435.28;;;13.78;72.35
3260;BME280;68938;48.150;14.004;2023-04-19T00:17:57;98435.22;;;13.79;72.37
3260;BME280;68938;48.150;14.004;2023-04-19T00:20:24;98431.88;;;13.77;72.30
3260;BME280;68938;48.150;14.004;2023-04-19T00:22:51;98431.94;;;13.75;72.35
3260;BME280;68938;48.150;14.004;2023-04-19T00:25:18;98435.47;;;13.73;72.53
3260;BME280;68938;48.150;14.004;2023-04-19T00:27:45;98430.78;;;13.61;73.04
3260;BME280;68938;48.150;14.004;2023-04-19T00:30:12;98421.53;;;13.55;72.85
3260;BME280;68938;48.150;14.004;2023-04-19T00:32:39;98432.50;;;13.60;73.00
3260;BME280;68938;48.150;14.004;2023-04-19T00:35:07;98418.22;;;13.51;73.37
3260;BME280;68938;48.150;14.004;2023-04-19T00:37:34;98413.84;;;13.54;73.25
3260;BME280;68938;48.150;14.004;2023-04-19T00:40:00;98408.66;;;13.55;73.27
3260;BME280;68938;48.150;14.004;2023-04-19T00:42:27;98421.19;;;13.64;72.95
3260;BME280;68938;48.150;14.004;2023-04-19T00:44:54;98405.00;;;13.61;72.92
3260;BME280;68938;48.150;14.004;2023-04-19T00:47:21;98406.09;;;13.54;73.29
3260;BME280;68938;48.150;14.004;2023-04-19T00:49:48;98407.13;;;13.49;73.33
3260;BME280;68938;48.150;14.004;2023-04-19T00:52:15;98402.94;;;13.47;73.28
3260;BME280;68938;48.150;14.004;2023-04-19T00:54:43;98400.31;;;13.48;73.20
3260;BME280;68938;48.150;14.004;2023-04-19T00:57:11;98398.63;;;13.47;73.25
3260;BME280;68938;48.150;14.004;2023-04-19T00:59:38;98401.22;;;13.47;73.20
3260;BME280;68938;48.150;14.004;2023-04-19T01:02:05;98401.97;;;13.49;73.23
3260;BME280;68938;48.150;14.004;2023-04-19T01:04:32;98396.81;;;13.49;73.04
3260;BME280;68938;48.150;14.004;2023-04-19T01:07:00;98394.34;;;13.46;73.21
3260;BME280;68938;48.150;14.004;2023-04-19T01:09:28;98388.25;;;13.49;73.23
3260;BME280;68938;48.150;14.004;2023-04-19T01:11:54;98390.09;;;13.45;73.19
3260;BME280;68938;48.150;14.004;2023-04-19T01:14:21;98390.50;;;13.35;74.04
3260;BME280;68938;48.150;14.004;2023-04-19T01:16:48;98379.41;;;13.33;74.07
3260;BME280;68938;48.150;14.004;2023-04-19T01:19:15;98381.03;;;13.35;73.64
3260;BME280;68938;48.150;14.004;2023-04-19T01:21:42;98378.44;;;13.37;73.88
3260;BME280;68938;48.150;14.004;2023-04-19T01:24:09;98377.41;;;13.41;73.91
3260;BME280;68938;48.150;14.004;2023-04-19T01:26:36;98377.19;;;13.47;73.06
3260;BME280;68938;48.150;14.004;2023-04-19T01:29:03;98373.69;;;13.48;73.39
3260;BME280;68938;48.150;14.004;2023-04-19T01:31:30;98360.94;;;13.45;73.13
3260;BME280;68938;48.150;14.004;2023-04-19T01:33:57;98356.50;;;13.48;73.39
3260;BME280;68938;48.150;14.004;2023-04-19T01:36:24;98362.38;;;13.52;73.19
3260;BME280;68938;48.150;14.004;2023-04-19T01:38:51;98354.94;;;13.44;73.37
3260;BME280;68938;48.150;14.004;2023-04-19T01:41:18;98347.84;;;13.49;73.09
3260;BME280;68938;48.150;14.004;2023-04-19T01:43:45;98356.31;;;13.53;73.10
3260;BME280;68938;48.150;14.004;2023-04-19T01:46:11;98353.00;;;13.49;72.97
3260;BME280;68938;48.150;14.004;2023-04-19T01:48:38;98355.66;;;13.48;73.07
3260;BME280;68938;48.150;14.004;2023-04-19T01:51:05;98353.19;;;13.45;72.99
3260;BME280;68938;48.150;14.004;2023-04-19T01:53:32;98351.03;;;13.34;73.21
3260;BME280;68938;48.150;14.004;2023-04-19T01:55:59;98351.91;;;13.33;73.17
3260;BME280;68938;48.150;14.004;2023-04-19T01:58:26;98346.63;;;13.36;73.23
3260;BME280;68938;48.150;14.004;2023-04-19T02:00:53;98339.78;;;13.37;72.85
3260;BME280;68938;48.150;14.004;2023-04-19T02:03:19;98337.25;;;13.35;72.85
3260;BME280;68938;48.150;14.004;2023-04-19T02:05:47;98333.75;;;13.36;72.84
3260;BME280;68938;48.150;14.004;2023-04-19T02:08:13;98334.63;;;13.37;72.45
3260;BME280;68938;48.150;14.004;2023-04-19T02:10:40;98345.69;;;13.39;72.51
3260;BME280;68938;48.150;14.004;2023-04-19T02:13:07;98340.66;;;13.36;72.30
3260;BME280;68938;48.150;14.004;2023-04-19T02:15:36;98338.06;;;13.36;72.34
3260;BME280;68938;48.150;14.004;2023-04-19T02:18:03;98338.03;;;13.37;72.51
3260;BME280;68938;48.150;14.004;2023-04-19T02:20:30;98334.63;;;13.37;72.24
3260;BME280;68938;48.150;14.004;2023-04-19T02:22:57;98337.19;;;13.37;72.27
3260;BME280;68938;48.150;14.004;2023-04-19T02:25:23;98317.84;;;13.26;72.36
3260;BME280;68938;48.150;14.004;2023-04-19T02:27:50;98328.78;;;13.32;72.43
3260;BME280;68938;48.150;14.004;2023-04-19T02:30:17;98327.22;;;13.27;72.48
3260;BME280;68938;48.150;14.004;2023-04-19T02:32:47;98333.09;;;13.31;72.27
3260;BME280;68938;48.150;14.004;2023-04-19T02:35:14;98327.16;;;13.29;72.42
3260;BME280;68938;48.150;14.004;2023-04-19T02:37:41;98324.66;;;13.27;72.23
3260;BME280;68938;48.150;14.004;2023-04-19T02:40:08;98315.34;;;13.23;72.46
3260;BME280;68938;48.150;14.004;2023-04-19T02:42:35;98322.13;;;13.26;72.36
3260;BME280;68938;48.150;14.004;2023-04-19T02:45:03;98323.00;;;13.26;72.47
3260;BME280;68938;48.150;14.004;2023-04-19T02:47:30;98318.72;;;13.25;72.50
3260;BME280;68938;48.150;14.004;2023-04-19T02:49:57;98322.91;;;13.28;72.58
3260;BME280;68938;48.150;14.004;2023-04-19T02:52:25;98309.25;;;13.26;72.28
3260;BME280;68938;48.150;14.004;2023-04-19T02:54:54;98320.34;;;13.28;72.33
3260;BME280;68938;48.150;14.004;2023-04-19T02:57:20;98317.69;;;13.30;72.54
3260;BME280;68938;48.150;14.004;2023-04-19T02:59:47;98322.72;;;13.33;72.49
3260;BME280;68938;48.150;14.004;2023-04-19T03:02:14;98317.53;;;13.34;72.46
3260;BME280;68938;48.150;14.004;2023-04-19T03:04:41;98318.59;;;13.28;72.67
3260;BME280;68938;48.150;14.004;2023-04-19T03:07:08;98316.03;;;13.28;72.75
3260;BME280;68938;48.150;14.004;2023-04-19T03:09:36;98307.47;;;13.28;72.69
3260;BME280;68938;48.150;14.004;2023-04-19T03:12:03;98304.09;;;13.26;72.81
3260;BME280;68938;48.150;14.004;2023-04-19T03:14:31;98300.53;;;13.30;72.76
3260;BME280;68938;48.150;14.004;2023-04-19T03:16:57;98304.06;;;13.27;72.75
3260;BME280;68938;48.150;14.004;2023-04-19T03:19:24;98298.72;;;13.32;72.88
3260;BME280;68938;48.150;14.004;2023-04-19T03:21:51;98292.59;;;13.35;72.81
3260;BME280;68938;48.150;14.004;2023-04-19T03:24:18;98286.50;;;13.37;72.79
3260;BME280;68938;48.150;14.004;2023-04-19T03:26:45;98289.13;;;13.36;72.74
3260;BME280;68938;48.150;14.004;2023-04-19T03:29:12;98286.50;;;13.37;72.65
3260;BME280;68938;48.150;14.004;2023-04-19T03:31:39;98277.94;;;13.37;72.65
3260;BME280;68938;48.150;14.004;2023-04-19T03:34:06;98275.28;;;13.38;72.55
3260;BME280;68938;48.150;14.004;2023-04-19T03:36:33;98276.84;;;13.42;72.84
3260;BME280;68938;48.150;14.004;2023-04-19T03:39:02;98268.28;;;13.42;72.43
3260;BME280;68938;48.150;14.004;2023-04-19T03:41:29;98265.94;;;13.36;72.28
3260;BME280;68938;48.150;14.004;2023-04-19T03:43:56;98274.63;;;13.33;72.36
3260;BME280;68938;48.150;14.004;2023-04-19T03:46:23;98267.06;;;13.28;72.05
3260;BME280;68938;48.150;14.004;2023-04-19T03:48:51;98265.34;;;13.29;72.29
3260;BME280;68938;48.150;14.004;2023-04-19T03:51:17;98264.63;;;13.25;72.24
3260;BME280;68938;48.150;14.004;2023-04-19T03:53:44;98264.69;;;13.22;72.13
3260;BME280;68938;48.150;14.004;2023-04-19T03:56:11;98262.13;;;13.22;72.05
3260;BME280;68938;48.150;14.004;2023-04-19T03:58:38;98261.41;;;13.19;72.04
3260;BME280;68938;48.150;14.004;2023-04-19T04:01:17;98264.88;;;13.18;71.80
3260;BME280;68938;48.150;14.004;2023-04-19T04:03:47;98266.84;;;13.11;71.86
3260;BME280;68938;48.150;14.004;2023-04-19T04:06:14;98261.78;;;13.10;71.76
3260;BME280;68938;48.150;14.004;2023-04-19T04:08:41;98266.22;;;13.06;71.67
3260;BME280;68938;48.150;14.004;2023-04-19T04:11:08;98272.31;;;13.03;71.59
3260;BME280;68938;48.150;14.004;2023-04-19T04:13:35;98264.81;;;12.97;71.67
3260;BME280;68938;48.150;14.004;2023-04-19T04:16:02;98272.72;;;12.93;71.77
3260;BME280;68938;48.150;14.004;2023-04-19T04:18:29;98274.44;;;12.92;71.95
3260;BME280;68938;48.150;14.004;2023-04-19T04:20:56;98267.72;;;12.88;71.96
3260;BME280;68938;48.150;14.004;2023-04-19T04:23:24;98269.31;;;12.92;72.30
3260;BME280;68938;48.150;14.004;2023-04-19T04:26:00;98271.72;;;12.95;72.23
3260;BME280;68938;48.150;14.004;2023-04-19T04:28:27;98270.06;;;12.94;72.53
3260;BME280;68938;48.150;14.004;2023-04-19T04:30:55;98269.03;;;12.98;72.84
3260;BME280;68938;48.150;14.004;2023-04-19T04:33:26;98270.75;;;12.99;72.12
3260;BME280;68938;48.150;14.004;2023-04-19T04:35:54;98274.16;;;13.00;72.33
3260;BME280;68938;48.150;14.004;2023-04-19T04:38:22;98274.03;;;13.03;72.34
3260;BME280;68938;48.150;14.004;2023-04-19T04:40:54;98280.69;;;13.09;72.23
3260;BME280;68938;48.150;14.004;2023-04-19T04:43:23;98271.41;;;13.04;72.44
3260;BME280;68938;48.150;14.004;2023-04-19T04:45:50;98280.56;;;13.12;72.45
3260;BME280;68938;48.150;14.004;2023-04-19T04:48:17;98260.06;;;13.09;72.57
3260;BME280;68938;48.150;14.004;2023-04-19T04:50:44;98264.09;;;13.16;72.42
3260;BME280;68938;48.150;14.004;2023-04-19T04:53:11;98262.41;;;13.15;72.64
3260;BME280;68938;48.150;14.004;2023-04-19T04:55:39;98263.22;;;13.17;72.47
3260;BME280;68938;48.150;14.004;2023-04-19T04:58:06;98259.00;;;13.14;72.63
3260;BME280;68938;48.150;14.004;2023-04-19T05:00:33;98259.84;;;13.15;72.77
3260;BME280;68938;48.150;14.004;2023-04-19T05:03:00;98259.00;;;13.14;73.04
3260;BME280;68938;48.150;14.004;2023-04-19T05:05:27;98254.81;;;13.12;73.06
3260;BME280;68938;48.150;14.004;2023-04-19T05:07:54;98255.53;;;13.15;73.03
3260;BME280;68938;48.150;14.004;2023-04-19T05:10:20;98254.50;;;13.19;73.01
3260;BME280;68938;48.150;14.004;2023-04-19T05:12:47;98250.06;;;13.23;73.02
3260;BME280;68938;48.150;14.004;2023-04-19T05:15:14;98249.22;;;13.24;72.99
3260;BME280;68938;48.150;14.004;2023-04-19T05:17:41;98240.59;;;13.25;73.19
3260;BME280;68938;48.150;14.004;2023-04-19T05:20:09;98246.47;;;13.28;72.84
3260;BME280;68938;48.150;14.004;2023-04-19T05:22:36;98244.56;;;13.34;73.22
3260;BME280;68938;48.150;14.004;2023-04-19T05:25:04;98242.03;;;13.32;73.09
3260;BME280;68938;48.150;14.004;2023-04-19T05:27:32;98246.22;;;13.35;73.29
3260;BME280;68938;48.150;14.004;2023-04-19T05:29:59;98239.41;;;13.34;73.59
3260;BME280;68938;48.150;14.004;2023-04-19T05:32:26;98247.75;;;13.40;73.68
3260;BME280;68938;48.150;14.004;2023-04-19T05:34:53;98233.00;;;13.44;73.29
3260;BME280;68938;48.150;14.004;2023-04-19T05:37:20;98227.72;;;13.47;73.60
3260;BME280;68938;48.150;14.004;2023-04-19T05:39:46;98232.81;;;13.48;73.40
3260;BME280;68938;48.150;14.004;2023-04-19T05:42:13;98236.28;;;13.47;73.53
3260;BME280;68938;48.150;14.004;2023-04-19T05:44:40;98228.59;;;13.46;73.36
3260;BME280;68938;48.150;14.004;2023-04-19T05:47:07;98231.06;;;13.49;73.47
3260;BME280;68938;48.150;14.004;2023-04-19T05:49:34;98223.09;;;13.55;73.51
3260;BME280;68938;48.150;14.004;2023-04-19T05:52:01;98226.50;;;13.56;73.62
3260;BME280;68938;48.150;14.004;2023-04-19T05:54:28;98220.16;;;13.42;73.26
3260;BME280;68938;48.150;14.004;2023-04-19T05:56:55;98220.81;;;13.47;73.39
3260;BME280;68938;48.150;14.004;2023-04-19T05:59:22;98206.00;;;13.52;73.61
3260;BME280;68938;48.150;14.004;2023-04-19T06:01:48;98213.38;;;13.62;73.62
3260;BME280;68938;48.150;14.004;2023-04-19T06:04:15;98217.69;;;13.61;73.48
3260;BME280;68938;48.150;14.004;2023-04-19T06:06:43;98218.56;;;13.60;72.78
3260;BME280;68938;48.150;14.004;2023-04-19T06:09:10;98213.97;;;13.46;73.06
3260;BME280;68938;48.150;14.004;2023-04-19T06:11:37;98220.72;;;13.50;73.30
3260;BME280;68938;48.150;14.004;2023-04-19T06:14:16;98209.50;;;13.51;73.19
3260;BME280;68938;48.150;14.004;2023-04-19T06:16:44;98208.22;;;13.62;73.22
3260;BME280;68938;48.150;14.004;2023-04-19T06:19:11;98218.25;;;13.47;72.61
3260;BME280;68938;48.150;14.004;2023-04-19T06:21:38;98213.22;;;13.44;73.04
3260;BME280;68938;48.150;14.004;2023-04-19T06:24:06;98210.84;;;13.60;72.74
3260;BME280;68938;48.150;14.004;2023-04-19T06:26:33;98212.53;;;13.61;73.31
3260;BME280;68938;48.150;14.004;2023-04-19T06:29:00;98208.00;;;13.66;72.54
3260;BME280;68938;48.150;14.004;2023-04-19T06:31:27;98211.06;;;13.76;72.84
3260;BME280;68938;48.150;14.004;2023-04-19T06:33:54;98206.03;;;13.73;72.38
3260;BME280;68938;48.150;14.004;2023-04-19T06:36:21;98206.47;;;13.83;72.07
3260;BME280;68938;48.150;14.004;2023-04-19T06:38:48;98206.94;;;13.92;72.14
3260;BME280;68938;48.150;14.004;2023-04-19T06:41:15;98198.16;;;13.96;72.34
3260;BME280;68938;48.150;14.004;2023-04-19T06:43:41;98196.41;;;13.97;72.26
3260;BME280;68938;48.150;14.004;2023-04-19T06:46:08;98196.03;;;14.06;72.29
3260;BME280;68938;48.150;14.004;2023-04-19T06:48:36;98200.06;;;14.12;72.43
3260;BME280;68938;48.150;14.004;2023-04-19T06:51:03;98192.06;;;14.18;72.01
3260;BME280;68938;48.150;14.004;2023-04-19T06:53:30;98192.50;;;14.09;71.51
3260;BME280;68938;48.150;14.004;2023-04-19T06:55:59;98189.34;;;14.02;71.84
3260;BME280;68938;48.150;14.004;2023-04-19T06:58:28;98191.22;;;13.98;72.21
3260;BME280;68938;48.150;14.004;2023-04-19T07:00:55;98188.50;;;13.81;72.41
3260;BME280;68938;48.150;14.004;2023-04-19T07:03:22;98178.97;;;13.83;72.57
3260;BME280;68938;48.150;14.004;2023-04-19T07:05:49;98186.19;;;13.75;72.63
3260;BME280;68938;48.150;14.004;2023-04-19T07:08:16;98180.69;;;13.83;73.04
3260;BME280;68938;48.150;14.004;2023-04-19T07:10:43;98177.44;;;13.98;71.74
3260;BME280;68938;48.150;14.004;2023-04-19T07:13:10;98177.06;;;14.07;71.77
3260;BME280;68938;48.150;14.004;2023-04-19T07:15:37;98181.66;;;14.01;71.51
3260;BME280;68938;48.150;14.004;2023-04-19T07:18:04;98181.72;;;13.99;70.97
3260;BME280;68938;48.150;14.004;2023-04-19T07:20:31;98177.34;;;13.81;71.59
3260;BME280;68938;48.150;14.004;2023-04-19T07:22:58;98172.13;;;13.82;71.95
3260;BME280;68938;48.150;14.004;2023-04-19T07:25:26;98169.34;;;13.87;72.35
3260;BME280;68938;48.150;14.004;2023-04-19T07:27:53;98162.56;;;14.05;71.07
3260;BME280;68938;48.150;14.004;2023-04-19T07:30:21;98167.94;;;13.80;71.75
3260;BME280;68938;48.150;14.004;2023-04-19T07:32:48;98163.72;;;13.97;71.85
3260;BME280;68938;48.150;14.004;2023-04-19T07:35:15;98166.03;;;14.04;70.81
3260;BME280;68938;48.150;14.004;2023-04-19T07:37:42;98171.81;;;14.29;70.92
3260;BME280;68938;48.150;14.004;2023-04-19T07:40:10;98167.72;;;14.44;70.95
3260;BME280;68938;48.150;14.004;2023-04-19T07:42:37;98161.28;;;14.34;69.93
3260;BME280;68938;48.150;14.004;2023-04-19T07:45:04;98165.34;;;14.39;70.14
3260;BME280;68938;48.150;14.004;2023-04-19T07:47:31;98170.19;;;14.27;69.60
3260;BME280;68938;48.150;14.004;2023-04-19T07:49:58;98164.56;;;14.37;69.37
3260;BME280;68938;48.150;14.004;2023-04-19T07:52:26;98171.63;;;14.53;68.79
3260;BME280;68938;48.150;14.004;2023-04-19T07:54:52;98163.50;;;14.41;68.79
3260;BME280;68938;48.150;14.004;2023-04-19T07:57:19;98159.41;;;14.56;69.67
3260;BME280;68938;48.150;14.004;2023-04-19T07:59:46;98164.06;;;14.48;68.29
3260;BME280;68938;48.150;14.004;2023-04-19T08:02:13;98161.56;;;14.46;67.79
3260;BME280;68938;48.150;14.004;2023-04-19T08:04:40;98156.78;;;14.58;68.36
3260;BME280;68938;48.150;14.004;2023-04-19T08:07:08;98151.63;;;14.58;68.28
3260;BME280;68938;48.150;14.004;2023-04-19T08:09:35;98155.06;;;14.19;68.96
3260;BME280;68938;48.150;14.004;2023-04-19T08:12:02;98156.34;;;14.29;69.17
3260;BME280;68938;48.150;14.004;2023-04-19T08:14:29;98145.19;;;14.48;68.96
3260;BME280;68938;48.150;14.004;2023-04-19T08:17:13;98151.75;;;14.74;67.90
3260;BME280;68938;48.150;14.004;2023-04-19T08:19:51;98152.00;;;14.86;66.89
3260;BME280;68938;48.150;14.004;2023-04-19T08:22:19;98138.81;;;14.92;66.40
3260;BME280;68938;48.150;14.004;2023-04-19T08:24:49;98144.38;;;15.02;64.75
3260;BME280;68938;48.150;14.004;2023-04-19T08:27:17;98151.16;;;15.05;64.68
3260;BME280;68938;48.150;14.004;2023-04-19T08:29:45;98148.44;;;15.08;64.00
3260;BME280;68938;48.150;14.004;2023-04-19T08:32:12;98141.38;;;15.11;63.57
3260;BME280;68938;48.150;14.004;2023-04-19T08:34:39;98142.78;;;15.17;64.06
3260;BME280;68938;48.150;14.004;2023-04-19T08:37:06;98138.41;;;15.19;64.26
3260;BME280;68938;48.150;14.004;2023-04-19T08:39:34;98142.59;;;15.22;65.18
3260;BME280;68938;48.150;14.004;2023-04-19T08:42:05;98141.44;;;15.27;64.81
3260;BME280;68938;48.150;14.004;2023-04-19T08:44:49;98139.66;;;15.10;64.43
3260;BME280;68938;48.150;14.004;2023-04-19T08:47:38;98138.97;;;15.07;64.00
3260;BME280;68938;48.150;14.004;2023-04-19T08:50:08;98133.28;;;15.00;63.13
3260;BME280;68938;48.150;14.004;2023-04-19T08:52:54;98132.63;;;14.78;64.21
3260;BME280;68938;48.150;14.004;2023-04-19T08:55:42;98139.03;;;14.69;64.90
3260;BME280;68938;48.150;14.004;2023-04-19T08:58:29;98123.22;;;14.58;65.75
3260;BME280;68938;48.150;14.004;2023-04-19T09:01:16;98128.13;;;14.64;65.81
3260;BME280;68938;48.150;14.004;2023-04-19T09:03:48;98125.16;;;14.72;66.05
3260;BME280;68938;48.150;14.004;2023-04-19T09:06:38;98120.41;;;14.81;66.04
3260;BME280;68938;48.150;14.004;2023-04-19T09:09:15;98121.19;;;14.64;66.38
3260;BME280;68938;48.150;14.004;2023-04-19T09:11:45;98106.81;;;14.40;65.98
3260;BME280;68938;48.150;14.004;2023-04-19T09:14:16;98118.34;;;14.33;67.31
3260;BME280;68938;48.150;14.004;2023-04-19T09:16:45;98107.56;;;14.42;66.73
3260;BME280;68938;48.150;14.004;2023-04-19T09:19:12;98108.72;;;14.55;66.50
3260;BME280;68938;48.150;14.004;2023-04-19T09:21:50;98108.97;;;14.49;66.87
3260;BME280;68938;48.150;14.004;2023-04-19T09:24:17;98104.31;;;14.57;65.74
3260;BME280;68938;48.150;14.004;2023-04-19T09:26:54;98113.03;;;14.55;66.42
3260;BME280;68938;48.150;14.004;2023-04-19T09:29:21;98106.22;;;14.54;65.65
3260;BME280;68938;48.150;14.004;2023-04-19T09:31:58;98106.72;;;14.41;65.09
3260;BME280;68938;48.150;14.004;2023-04-19T09:34:26;98096.38;;;14.43;65.21
3260;BME280;68938;48.150;14.004;2023-04-19T09:36:53;98105.53;;;14.50;64.51
3260;BME280;68938;48.150;14.004;2023-04-19T09:39:38;98094.97;;;14.36;64.42
3260;BME280;68938;48.150;14.004;2023-04-19T09:42:05;98091.75;;;14.50;64.60
3260;BME280;68938;48.150;14.004;2023-04-19T09:44:32;98092.94;;;14.61;64.87
3260;BME280;68938;48.150;14.004;2023-04-19T09:47:27;98098.03;;;14.63;64.98
3260;BME280;68938;48.150;14.004;2023-04-19T09:52:49;98090.03;;;14.50;65.71
3260;BME280;68938;48.150;14.004;2023-04-19T09:55:21;98091.88;;;14.46;65.86
3260;BME280;68938;48.150;14.004;2023-04-19T09:57:57;98090.88;;;14.51;66.29
3260;BME280;68938;48.150;14.004;2023-04-19T10:00:24;98093.16;;;14.57;66.35
3260;BME280;68938;48.150;14.004;2023-04-19T10:02:55;98091.41;;;14.57;66.23
3260;BME280;68938;48.150;14.004;2023-04-19T10:05:24;98081.84;;;14.59;66.30
3260;BME280;68938;48.150;14.004;2023-04-19T10:07:52;98079.25;;;14.59;66.15
3260;BME280;68938;48.150;14.004;2023-04-19T10:10:25;98085.59;;;14.71;66.07
3260;BME280;68938;48.150;14.004;2023-04-19T10:13:10;98086.53;;;14.70;66.50
3260;BME280;68938;48.150;14.004;2023-04-19T10:15:42;98083.31;;;14.65;66.52
3260;BME280;68938;48.150;14.004;2023-04-19T10:18:21;98080.03;;;14.61;66.75
3260;BME280;68938;48.150;14.004;2023-04-19T10:20:54;98078.00;;;14.68;66.76
3260;BME280;68938;48.150;14.004;2023-04-19T10:23:27;98083.84;;;14.72;66.76
3260;BME280;68938;48.150;14.004;2023-04-19T10:25:56;98094.03;;;14.75;66.97
3260;BME280;68938;48.150;14.004;2023-04-19T10:28:24;98093.16;;;14.57;65.53
3260;BME280;68938;48.150;14.004;2023-04-19T10:30:58;98090.41;;;14.41;63.48
3260;BME280;68938;48.150;14.004;2023-04-19T10:33:28;98090.09;;;14.30;63.67
3260;BME280;68938;48.150;14.004;2023-04-19T10:35:57;98093.81;;;14.04;63.39
3260;BME280;68938;48.150;14.004;2023-04-19T10:38:39;98087.53;;;13.90;64.19
3260;BME280;68938;48.150;14.004;2023-04-19T10:41:08;98092.13;;;13.84;65.01
3260;BME280;68938;48.150;14.004;2023-04-19T10:43:35;98091.09;;;13.88;65.89
3260;BME280;68938;48.150;14.004;2023-04-19T10:46:34;98096.25;;;13.88;65.31
3260;BME280;68938;48.150;14.004;2023-04-19T10:49:04;98096.53;;;13.82;65.94
3260;BME280;68938;48.150;14.004;2023-04-19T10:54:08;98088.22;;;13.75;66.49
3260;BME280;68938;48.150;14.004;2023-04-19T11:01:33;98083.19;;;13.72;67.08
3260;BME280;68938;48.150;14.004;2023-04-19T11:04:02;98066.00;;;13.52;68.95
3260;BME280;68938;48.150;14.004;2023-04-19T11:06:32;98068.97;;;13.63;68.87
3260;BME280;68938;48.150;14.004;2023-04-19T11:09:00;98066.19;;;13.68;68.72
3260;BME280;68938;48.150;14.004;2023-04-19T11:11:27;98064.25;;;13.73;68.31
3260;BME280;68938;48.150;14.004;2023-04-19T11:13:55;98064.09;;;13.76;68.37
3260;BME280;68938;48.150;14.004;2023-04-19T11:16:23;98069.91;;;13.81;68.42
3260;BME280;68938;48.150;14.004;2023-04-19T11:19:07;98069.19;;;13.78;67.98
3260;BME280;68938;48.150;14.004;2023-04-19T11:21:40;98067.38;;;13.80;68.31
3260;BME280;68938;48.150;14.004;2023-04-19T11:24:08;98073.94;;;13.87;68.34
3260;BME280;68938;48.150;14.004;2023-04-19T11:26:35;98066.16;;;13.88;67.87
3260;BME280;68938;48.150;14.004;2023-04-19T11:29:02;98063.94;;;13.99;67.12
3260;BME280;68938;48.150;14.004;2023-04-19T11:31:33;98072.28;;;14.05;66.93
3260;BME280;68938;48.150;14.004;2023-04-19T11:34:04;98058.69;;;14.01;66.80
3260;BME280;68938;48.150;14.004;2023-04-19T11:36:31;98058.56;;;14.04;66.71
3260;BME280;68938;48.150;14.004;2023-04-19T11:38:58;98071.53;;;14.03;65.43
3260;BME280;68938;48.150;14.004;2023-04-19T11:41:25;98063.16;;;13.97;65.43
3260;BME280;68938;48.150;14.004;2023-04-19T11:43:52;98057.38;;;13.92;65.96
3260;BME280;68938;48.150;14.004;2023-04-19T11:46:19;98062.31;;;13.97;66.30
3260;BME280;68938;48.150;14.004;2023-04-19T11:48:50;98057.09;;;13.98;66.59
3260;BME280;68938;48.150;14.004;2023-04-19T11:51:19;98063.00;;;14.01;66.58
3260;BME280;68938;48.150;14.004;2023-04-19T11:53:46;98062.41;;;13.95;66.33
3260;BME280;68938;48.150;14.004;2023-04-19T11:56:13;98064.34;;;13.90;64.85
3260;BME280;68938;48.150;14.004;2023-04-19T11:58:42;98060.13;;;13.88;65.55
3260;BME280;68938;48.150;14.004;2023-04-19T12:01:21;98066.16;;;13.88;65.44
3260;BME280;68938;48.150;14.004;2023-04-19T12:03:51;98058.28;;;13.91;65.73
3260;BME280;68938;48.150;14.004;2023-04-19T12:06:25;98067.69;;;13.92;65.74
3260;BME280;68938;48.150;14.004;2023-04-19T12:08:54;98068.66;;;13.90;65.87
3260;BME280;68938;48.150;14.004;2023-04-19T12:11:41;98050.75;;;13.87;65.59
3260;BME280;68938;48.150;14.004;2023-04-19T12:14:15;98060.88;;;13.91;65.17
3260;BME280;68938;48.150;14.004;2023-04-19T12:16:43;98062.81;;;13.86;65.31
3260;BME280;68938;48.150;14.004;2023-04-19T12:19:15;98061.53;;;13.76;65.03
3260;BME280;68938;48.150;14.004;2023-04-19T12:21:45;98058.75;;;13.81;64.72
3260;BME280;68938;48.150;14.004;2023-04-19T12:24:16;98057.16;;;13.78;64.84
3260;BME280;68938;48.150;14.004;2023-04-19T12:26:53;98056.25;;;13.79;64.72
3260;BME280;68938;48.150;14.004;2023-04-19T12:29:22;98061.44;;;13.78;65.21
3260;BME280;68938;48.150;14.004;2023-04-19T12:31:49;98051.13;;;13.78;64.68
3260;BME280;68938;48.150;14.004;2023-04-19T12:34:16;98064.59;;;13.84;65.24
3260;BME280;68938;48.150;14.004;2023-04-19T12:36:42;98053.44;;;13.84;65.01
3260;BME280;68938;48.150;14.004;2023-04-19T12:39:09;98049.00;;;13.87;64.99
3260;BME280;68938;48.150;14.004;2023-04-19T12:41:36;98058.34;;;13.90;64.51
3260;BME280;68938;48.150;14.004;2023-04-19T12:44:03;98052.56;;;13.85;64.78
3260;BME280;68938;48.150;14.004;2023-04-19T12:46:30;98061.75;;;13.90;64.88
3260;BME280;68938;48.150;14.004;2023-04-19T12:48:57;98050.47;;;13.93;65.29
3260;BME280;68938;48.150;14.004;2023-04-19T12:51:24;98058.06;;;13.96;64.89
3260;BME280;68938;48.150;14.004;2023-04-19T12:53:51;98059.69;;;13.98;64.38
3260;BME280;68938;48.150;14.004;2023-04-19T12:56:18;98061.47;;;13.96;64.52
3260;BME280;68938;48.150;14.004;2023-04-19T12:58:46;98053.13;;;13.91;65.17
3260;BME280;68938;48.150;14.004;2023-04-19T13:01:12;98055.72;;;13.91;65.30
3260;BME280;68938;48.150;14.004;2023-04-19T13:03:40;98053.31;;;13.87;65.01
3260;BME280;68938;48.150;14.004;2023-04-19T13:06:08;98050.00;;;13.85;64.98
3260;BME280;68938;48.150;14.004;2023-04-19T13:08:35;98056.09;;;13.82;65.74
3260;BME280;68938;48.150;14.004;2023-04-19T13:11:12;98059.31;;;13.48;63.17
3260;BME280;68938;48.150;14.004;2023-04-19T13:13:39;98064.47;;;13.27;62.63
3260;BME280;68938;48.150;14.004;2023-04-19T13:16:06;98060.50;;;13.19;63.31
3260;BME280;68938;48.150;14.004;2023-04-19T13:18:33;98062.06;;;13.02;64.00